sensor_id;sensor_type;location;lat;lon;timestamp;P1;durP1;ratioP1;P2;durP2;ratioP2
34471;SDS011;20710;49.976;19.836;2024-03-08T00:01:56;49.60;;;24.10;;
34471;SDS011;20710;49.976;19.836;2024-03-08T00:17:17;51.30;;;24.30;;
34471;SDS011;20710;49.976;19.836;2024-03-08T00:24:58;42.70;;;24.20;;
34471;SDS011;20710;49.976;19.836;2024-03-08T00:32:21;44.80;;;23.10;;
34471;SDS011;20710;49.976;19.836;2024-03-08T00:38:29;50.70;;;24.40;;
34471;SDS011;20710;49.976;19.836;2024-03-08T00:46:13;44.00;;;23.50;;
34471;SDS011;20710;49.976;19.836;2024-03-08T01:01:28;48.30;;;24.60;;
34471;SDS011;20710;49.976;19.836;2024-03-08T01:07:39;54.60;;;25.50;;
34471;SDS011;20710;49.976;19.836;2024-03-08T01:23:23;43.20;;;22.80;;
34471;SDS011;20710;49.976;19.836;2024-03-08T01:30:09;39.80;;;22.20;;
34471;SDS011;20710;49.976;19.836;2024-03-08T01:37:33;44.80;;;23.40;;
34471;SDS011;20710;49.976;19.836;2024-03-08T01:52:34;46.60;;;24.20;;
34471;SDS011;20710;49.976;19.836;2024-03-08T02:00:41;45.50;;;22.80;;
34471;SDS011;20710;49.976;19.836;2024-03-08T02:07:14;48.80;;;23.10;;
34471;SDS011;20710;49.976;19.836;2024-03-08T02:37:18;52.90;;;24.70;;
34471;SDS011;20710;49.976;19.836;2024-03-08T02:43:20;43.50;;;23.00;;
34471;SDS011;20710;49.976;19.836;2024-03-08T02:49:26;43.00;;;22.30;;
34471;SDS011;20710;49.976;19.836;2024-03-08T02:55:28;39.60;;;21.90;;
34471;SDS011;20710;49.976;19.836;2024-03-08T03:01:30;42.70;;;22.60;;
34471;SDS011;20710;49.976;19.836;2024-03-08T03:07:33;44.50;;;23.60;;
34471;SDS011;20710;49.976;19.836;2024-03-08T03:13:35;47.80;;;23.90;;
34471;SDS011;20710;49.976;19.836;2024-03-08T03:19:40;52.70;;;25.10;;
34471;SDS011;20710;49.976;19.836;2024-03-08T03:25:42;36.20;;;21.70;;
34471;SDS011;20710;49.976;19.836;2024-03-08T03:31:44;46.10;;;23.00;;
34471;SDS011;20710;49.976;19.836;2024-03-08T03:37:48;44.80;;;23.90;;
34471;SDS011;20710;49.976;19.836;2024-03-08T03:44:02;42.30;;;21.40;;
34471;SDS011;20710;49.976;19.836;2024-03-08T03:50:05;46.20;;;23.50;;
34471;SDS011;20710;49.976;19.836;2024-03-08T03:56:08;41.80;;;22.20;;
34471;SDS011;20710;49.976;19.836;2024-03-08T04:02:10;39.90;;;22.40;;
34471;SDS011;20710;49.976;19.836;2024-03-08T04:08:14;40.10;;;21.30;;
34471;SDS011;20710;49.976;19.836;2024-03-08T04:14:18;39.90;;;22.40;;
34471;SDS011;20710;49.976;19.836;2024-03-08T04:20:20;43.40;;;22.70;;
34471;SDS011;20710;49.976;19.836;2024-03-08T04:26:22;46.70;;;25.30;;
34471;SDS011;20710;49.976;19.836;2024-03-08T04:32:24;50.40;;;26.20;;
34471;SDS011;20710;49.976;19.836;2024-03-08T04:38:26;45.90;;;24.30;;
34471;SDS011;20710;49.976;19.836;2024-03-08T04:44:29;46.00;;;23.90;;
34471;SDS011;20710;49.976;19.836;2024-03-08T04:50:31;43.70;;;24.30;;
34471;SDS011;20710;49.976;19.836;2024-03-08T04:56:33;53.60;;;24.30;;
34471;SDS011;20710;49.976;19.836;2024-03-08T05:02:36;42.80;;;23.70;;
34471;SDS011;20710;49.976;19.836;2024-03-08T05:08:52;40.20;;;22.10;;
34471;SDS011;20710;49.976;19.836;2024-03-08T05:14:55;40.60;;;22.30;;
34471;SDS011;20710;49.976;19.836;2024-03-08T05:21:00;45.00;;;23.20;;
34471;SDS011;20710;49.976;19.836;2024-03-08T05:27:06;45.80;;;23.70;;
34471;SDS011;20710;49.976;19.836;2024-03-08T05:33:11;45.30;;;23.00;;
34471;SDS011;20710;49.976;19.836;2024-03-08T05:39:16;41.40;;;22.50;;
34471;SDS011;20710;49.976;19.836;2024-03-08T05:45:18;40.60;;;21.20;;
34471;SDS011;20710;49.976;19.836;2024-03-08T05:51:23;40.40;;;22.10;;
34471;SDS011;20710;49.976;19.836;2024-03-08T05:57:30;45.70;;;23.70;;
34471;SDS011;20710;49.976;19.836;2024-03-08T06:03:31;41.90;;;22.80;;
34471;SDS011;20710;49.976;19.836;2024-03-08T06:09:34;45.40;;;24.80;;
34471;SDS011;20710;49.976;19.836;2024-03-08T06:15:37;46.40;;;24.80;;
34471;SDS011;20710;49.976;19.836;2024-03-08T06:21:39;46.80;;;25.10;;
34471;SDS011;20710;49.976;19.836;2024-03-08T06:27:47;49.50;;;26.60;;
34471;SDS011;20710;49.976;19.836;2024-03-08T06:34:06;44.40;;;24.60;;
34471;SDS011;20710;49.976;19.836;2024-03-08T06:40:39;46.70;;;25.80;;
34471;SDS011;20710;49.976;19.836;2024-03-08T06:46:50;48.10;;;25.10;;
34471;SDS011;20710;49.976;19.836;2024-03-08T06:52:59;40.90;;;23.40;;
34471;SDS011;20710;49.976;19.836;2024-03-08T06:59:04;46.90;;;25.60;;
34471;SDS011;20710;49.976;19.836;2024-03-08T07:05:16;48.00;;;23.50;;
34471;SDS011;20710;49.976;19.836;2024-03-08T07:11:19;43.40;;;21.90;;
34471;SDS011;20710;49.976;19.836;2024-03-08T07:17:26;44.50;;;24.80;;
34471;SDS011;20710;49.976;19.836;2024-03-08T07:23:28;46.90;;;25.30;;
34471;SDS011;20710;49.976;19.836;2024-03-08T07:29:55;45.60;;;24.90;;
34471;SDS011;20710;49.976;19.836;2024-03-08T07:36:01;43.70;;;23.80;;
34471;SDS011;20710;49.976;19.836;2024-03-08T07:42:04;47.00;;;25.10;;
34471;SDS011;20710;49.976;19.836;2024-03-08T07:48:06;43.40;;;23.60;;
34471;SDS011;20710;49.976;19.836;2024-03-08T07:54:12;42.50;;;24.60;;
34471;SDS011;20710;49.976;19.836;2024-03-08T08:00:15;44.50;;;24.70;;
34471;SDS011;20710;49.976;19.836;2024-03-08T08:06:19;41.30;;;22.90;;
34471;SDS011;20710;49.976;19.836;2024-03-08T08:12:26;50.60;;;25.00;;
34471;SDS011;20710;49.976;19.836;2024-03-08T08:18:32;44.20;;;22.50;;
34471;SDS011;20710;49.976;19.836;2024-03-08T08:24:35;45.90;;;24.40;;
34471;SDS011;20710;49.976;19.836;2024-03-08T08:30:38;44.90;;;25.50;;
34471;SDS011;20710;49.976;19.836;2024-03-08T08:36:40;42.50;;;24.00;;
34471;SDS011;20710;49.976;19.836;2024-03-08T08:42:43;39.10;;;22.20;;
34471;SDS011;20710;49.976;19.836;2024-03-08T08:48:48;42.30;;;23.20;;
34471;SDS011;20710;49.976;19.836;2024-03-08T08:54:54;43.60;;;24.80;;
34471;SDS011;20710;49.976;19.836;2024-03-08T09:00:56;46.30;;;23.60;;
34471;SDS011;20710;49.976;19.836;2024-03-08T09:06:58;39.40;;;22.80;;
34471;SDS011;20710;49.976;19.836;2024-03-08T09:13:02;45.10;;;24.00;;
34471;SDS011;20710;49.976;19.836;2024-03-08T09:19:05;40.00;;;20.40;;
34471;SDS011;20710;49.976;19.836;2024-03-08T09:25:08;43.50;;;25.10;;
34471;SDS011;20710;49.976;19.836;2024-03-08T09:31:11;46.30;;;25.70;;
34471;SDS011;20710;49.976;19.836;2024-03-08T09:37:13;41.00;;;23.30;;
34471;SDS011;20710;49.976;19.836;2024-03-08T09:43:18;44.80;;;25.10;;
34471;SDS011;20710;49.976;19.836;2024-03-08T09:49:23;36.70;;;21.20;;
34471;SDS011;20710;49.976;19.836;2024-03-08T09:55:30;44.10;;;23.80;;
34471;SDS011;20710;49.976;19.836;2024-03-08T10:01:38;42.80;;;24.50;;
34471;SDS011;20710;49.976;19.836;2024-03-08T10:07:43;40.80;;;23.40;;
34471;SDS011;20710;49.976;19.836;2024-03-08T10:13:46;40.00;;;23.80;;
34471;SDS011;20710;49.976;19.836;2024-03-08T10:19:50;43.70;;;22.60;;
34471;SDS011;20710;49.976;19.836;2024-03-08T10:25:53;43.30;;;24.20;;
34471;SDS011;20710;49.976;19.836;2024-03-08T10:31:56;41.80;;;22.80;;
34471;SDS011;20710;49.976;19.836;2024-03-08T10:37:58;41.30;;;24.40;;
34471;SDS011;20710;49.976;19.836;2024-03-08T10:44:15;35.20;;;20.50;;
34471;SDS011;20710;49.976;19.836;2024-03-08T10:50:33;43.00;;;24.00;;
34471;SDS011;20710;49.976;19.836;2024-03-08T10:56:36;44.00;;;23.80;;
34471;SDS011;20710;49.976;19.836;2024-03-08T11:02:44;43.70;;;24.60;;
34471;SDS011;20710;49.976;19.836;2024-03-08T11:08:46;39.00;;;23.00;;
34471;SDS011;20710;49.976;19.836;2024-03-08T11:14:49;43.10;;;23.10;;
34471;SDS011;20710;49.976;19.836;2024-03-08T11:20:55;41.00;;;21.60;;
34471;SDS011;20710;49.976;19.836;2024-03-08T11:26:57;41.50;;;22.90;;
34471;SDS011;20710;49.976;19.836;2024-03-08T11:33:16;41.80;;;25.00;;
34471;SDS011;20710;49.976;19.836;2024-03-08T11:39:28;39.60;;;20.60;;
34471;SDS011;20710;49.976;19.836;2024-03-08T11:45:42;39.30;;;22.50;;
34471;SDS011;20710;49.976;19.836;2024-03-08T11:51:55;42.10;;;24.20;;
34471;SDS011;20710;49.976;19.836;2024-03-08T11:58:06;40.60;;;22.90;;
34471;SDS011;20710;49.976;19.836;2024-03-08T12:35:09;32.30;;;21.00;;
34471;SDS011;20710;49.976;19.836;2024-03-08T12:41:20;38.40;;;21.90;;
34471;SDS011;20710;49.976;19.836;2024-03-08T12:47:25;35.40;;;21.70;;
34471;SDS011;20710;49.976;19.836;2024-03-08T12:53:34;36.10;;;21.30;;
34471;SDS011;20710;49.976;19.836;2024-03-08T12:59:45;39.30;;;22.70;;
34471;SDS011;20710;49.976;19.836;2024-03-08T13:05:47;34.70;;;21.00;;
34471;SDS011;20710;49.976;19.836;2024-03-08T13:12:10;35.80;;;21.20;;
34471;SDS011;20710;49.976;19.836;2024-03-08T13:18:15;38.30;;;21.40;;
34471;SDS011;20710;49.976;19.836;2024-03-08T13:24:21;32.50;;;19.10;;
34471;SDS011;20710;49.976;19.836;2024-03-08T13:30:33;92.00;;;52.90;;
34471;SDS011;20710;49.976;19.836;2024-03-08T13:43:52;35.50;;;21.20;;
34471;SDS011;20710;49.976;19.836;2024-03-08T13:49:57;39.10;;;22.40;;
34471;SDS011;20710;49.976;19.836;2024-03-08T13:56:00;37.10;;;21.90;;
34471;SDS011;20710;49.976;19.836;2024-03-08T14:02:09;39.10;;;23.90;;
34471;SDS011;20710;49.976;19.836;2024-03-08T14:08:15;40.10;;;21.90;;
34471;SDS011;20710;49.976;19.836;2024-03-08T14:14:21;35.20;;;20.80;;
34471;SDS011;20710;49.976;19.836;2024-03-08T14:20:24;39.00;;;22.10;;
34471;SDS011;20710;49.976;19.836;2024-03-08T14:26:27;34.80;;;20.30;;
34471;SDS011;20710;49.976;19.836;2024-03-08T14:32:29;39.00;;;21.50;;
34471;SDS011;20710;49.976;19.836;2024-03-08T14:38:31;37.00;;;21.80;;
34471;SDS011;20710;49.976;19.836;2024-03-08T14:44:33;37.50;;;22.40;;
34471;SDS011;20710;49.976;19.836;2024-03-08T14:50:35;35.40;;;21.20;;
34471;SDS011;20710;49.976;19.836;2024-03-08T14:56:38;38.10;;;22.80;;
34471;SDS011;20710;49.976;19.836;2024-03-08T15:02:43;41.20;;;22.70;;
34471;SDS011;20710;49.976;19.836;2024-03-08T15:08:46;38.90;;;21.90;;
34471;SDS011;20710;49.976;19.836;2024-03-08T15:14:49;38.80;;;22.20;;
34471;SDS011;20710;49.976;19.836;2024-03-08T15:20:53;41.40;;;23.70;;
34471;SDS011;20710;49.976;19.836;2024-03-08T15:27:02;40.50;;;22.10;;
34471;SDS011;20710;49.976;19.836;2024-03-08T15:33:08;37.90;;;21.50;;
34471;SDS011;20710;49.976;19.836;2024-03-08T15:39:14;40.30;;;23.70;;
34471;SDS011;20710;49.976;19.836;2024-03-08T15:45:16;38.50;;;21.50;;
34471;SDS011;20710;49.976;19.836;2024-03-08T15:51:25;38.10;;;22.60;;
34471;SDS011;20710;49.976;19.836;2024-03-08T15:57:32;43.80;;;23.80;;
34471;SDS011;20710;49.976;19.836;2024-03-08T16:03:53;43.20;;;24.60;;
34471;SDS011;20710;49.976;19.836;2024-03-08T16:10:38;44.00;;;23.00;;
34471;SDS011;20710;49.976;19.836;2024-03-08T16:16:47;52.20;;;26.90;;
34471;SDS011;20710;49.976;19.836;2024-03-08T16:22:59;45.20;;;24.50;;
34471;SDS011;20710;49.976;19.836;2024-03-08T16:29:06;46.10;;;25.80;;
34471;SDS011;20710;49.976;19.836;2024-03-08T16:35:42;48.30;;;26.50;;
34471;SDS011;20710;49.976;19.836;2024-03-08T16:41:48;51.90;;;26.20;;
34471;SDS011;20710;49.976;19.836;2024-03-08T16:47:55;51.20;;;27.20;;
34471;SDS011;20710;49.976;19.836;2024-03-08T16:53:56;61.50;;;29.80;;
34471;SDS011;20710;49.976;19.836;2024-03-08T16:59:59;53.20;;;28.90;;
34471;SDS011;20710;49.976;19.836;2024-03-08T17:06:01;58.20;;;29.30;;
34471;SDS011;20710;49.976;19.836;2024-03-08T17:12:09;58.00;;;29.50;;
34471;SDS011;20710;49.976;19.836;2024-03-08T17:18:12;62.50;;;30.40;;
34471;SDS011;20710;49.976;19.836;2024-03-08T17:24:14;57.10;;;31.00;;
34471;SDS011;20710;49.976;19.836;2024-03-08T17:30:21;68.70;;;36.80;;
34471;SDS011;20710;49.976;19.836;2024-03-08T17:36:31;89.30;;;44.50;;
34471;SDS011;20710;49.976;19.836;2024-03-08T17:42:37;112.60;;;50.00;;
34471;SDS011;20710;49.976;19.836;2024-03-08T17:48:40;85.70;;;41.60;;
34471;SDS011;20710;49.976;19.836;2024-03-08T17:54:43;110.50;;;49.80;;
34471;SDS011;20710;49.976;19.836;2024-03-08T18:00:45;209.50;;;83.10;;
34471;SDS011;20710;49.976;19.836;2024-03-08T18:06:47;129.10;;;56.40;;
34471;SDS011;20710;49.976;19.836;2024-03-08T18:12:53;193.20;;;80.10;;
34471;SDS011;20710;49.976;19.836;2024-03-08T18:19:02;167.60;;;68.30;;
34471;SDS011;20710;49.976;19.836;2024-03-08T18:25:16;144.60;;;58.60;;
34471;SDS011;20710;49.976;19.836;2024-03-08T18:31:49;125.20;;;53.80;;
34471;SDS011;20710;49.976;19.836;2024-03-08T18:37:57;106.10;;;48.30;;
34471;SDS011;20710;49.976;19.836;2024-03-08T18:44:04;110.60;;;50.10;;
34471;SDS011;20710;49.976;19.836;2024-03-08T18:50:44;96.90;;;46.90;;
34471;SDS011;20710;49.976;19.836;2024-03-08T18:57:07;103.60;;;48.80;;
34471;SDS011;20710;49.976;19.836;2024-03-08T19:03:12;159.70;;;65.60;;
34471;SDS011;20710;49.976;19.836;2024-03-08T19:09:43;126.10;;;54.40;;
34471;SDS011;20710;49.976;19.836;2024-03-08T19:16:11;109.00;;;48.90;;
34471;SDS011;20710;49.976;19.836;2024-03-08T19:22:32;114.70;;;50.40;;
34471;SDS011;20710;49.976;19.836;2024-03-08T19:29:02;100.20;;;48.20;;
34471;SDS011;20710;49.976;19.836;2024-03-08T19:35:07;115.80;;;58.50;;
34471;SDS011;20710;49.976;19.836;2024-03-08T19:41:13;112.80;;;51.30;;
34471;SDS011;20710;49.976;19.836;2024-03-08T19:47:15;104.30;;;51.00;;
34471;SDS011;20710;49.976;19.836;2024-03-08T19:53:17;116.80;;;52.60;;
34471;SDS011;20710;49.976;19.836;2024-03-08T19:59:19;114.60;;;52.40;;
34471;SDS011;20710;49.976;19.836;2024-03-08T20:05:22;159.10;;;66.20;;
34471;SDS011;20710;49.976;19.836;2024-03-08T20:11:29;153.20;;;66.70;;
34471;SDS011;20710;49.976;19.836;2024-03-08T20:17:31;133.70;;;61.00;;
34471;SDS011;20710;49.976;19.836;2024-03-08T20:23:33;141.00;;;66.50;;
34471;SDS011;20710;49.976;19.836;2024-03-08T20:29:41;133.00;;;59.70;;
34471;SDS011;20710;49.976;19.836;2024-03-08T20:35:45;131.10;;;59.50;;
34471;SDS011;20710;49.976;19.836;2024-03-08T20:41:51;125.80;;;55.80;;
34471;SDS011;20710;49.976;19.836;2024-03-08T20:47:56;136.70;;;58.10;;
34471;SDS011;20710;49.976;19.836;2024-03-08T20:53:59;189.70;;;71.40;;
34471;SDS011;20710;49.976;19.836;2024-03-08T21:00:01;174.10;;;72.30;;
34471;SDS011;20710;49.976;19.836;2024-03-08T21:06:04;232.60;;;90.10;;
34471;SDS011;20710;49.976;19.836;2024-03-08T21:12:11;133.20;;;58.40;;
34471;SDS011;20710;49.976;19.836;2024-03-08T21:18:15;127.80;;;56.40;;
34471;SDS011;20710;49.976;19.836;2024-03-08T21:24:17;129.70;;;57.50;;
34471;SDS011;20710;49.976;19.836;2024-03-08T21:30:19;116.00;;;53.50;;
34471;SDS011;20710;49.976;19.836;2024-03-08T21:36:24;156.80;;;69.20;;
34471;SDS011;20710;49.976;19.836;2024-03-08T21:42:26;148.80;;;64.60;;
34471;SDS011;20710;49.976;19.836;2024-03-08T21:48:29;153.80;;;67.50;;
34471;SDS011;20710;49.976;19.836;2024-03-08T21:54:32;150.70;;;64.50;;
34471;SDS011;20710;49.976;19.836;2024-03-08T22:00:36;146.90;;;65.40;;
34471;SDS011;20710;49.976;19.836;2024-03-08T22:06:40;162.60;;;67.50;;
34471;SDS011;20710;49.976;19.836;2024-03-08T22:12:43;157.30;;;68.00;;
34471;SDS011;20710;49.976;19.836;2024-03-08T22:18:45;168.60;;;69.20;;
34471;SDS011;20710;49.976;19.836;2024-03-08T22:24:48;137.00;;;61.50;;
34471;SDS011;20710;49.976;19.836;2024-03-08T22:30:57;132.10;;;62.00;;
34471;SDS011;20710;49.976;19.836;2024-03-08T22:37:00;131.90;;;60.20;;
34471;SDS011;20710;49.976;19.836;2024-03-08T22:43:02;146.20;;;65.50;;
34471;SDS011;20710;49.976;19.836;2024-03-08T22:49:06;129.50;;;59.20;;
34471;SDS011;20710;49.976;19.836;2024-03-08T22:55:11;115.10;;;52.30;;
34471;SDS011;20710;49.976;19.836;2024-03-08T23:01:13;135.90;;;57.90;;
34471;SDS011;20710;49.976;19.836;2024-03-08T23:07:18;120.10;;;55.60;;
34471;SDS011;20710;49.976;19.836;2024-03-08T23:13:21;135.60;;;63.30;;
34471;SDS011;20710;49.976;19.836;2024-03-08T23:19:26;122.60;;;55.60;;
34471;SDS011;20710;49.976;19.836;2024-03-08T23:39:53;138.60;;;60.00;;
34471;SDS011;20710;49.976;19.836;2024-03-08T23:45:58;165.80;;;66.80;;
34471;SDS011;20710;49.976;19.836;2024-03-08T23:52:06;156.60;;;66.90;;
34471;SDS011;20710;49.976;19.836;2024-03-08T23:58:09;168.00;;;64.90;;
